sensor_id;sensor_type;location;lat;lon;timestamp;temperature;humidity
16970;DHT22;8601;48.718;8.992;2023-05-14T00:00:29;11.40;99.90
16970;DHT22;8601;48.718;8.992;2023-05-14T00:02:57;11.40;99.90
16970;DHT22;8601;48.718;8.992;2023-05-14T00:05:25;11.40;99.90
16970;DHT22;8601;48.718;8.992;2023-05-14T00:07:52;11.40;99.90
16970;DHT22;8601;48.718;8.992;2023-05-14T00:10:19;11.40;99.90
16970;DHT22;8601;48.718;8.992;2023-05-14T00:12:46;11.30;99.90
16970;DHT22;8601;48.718;8.992;2023-05-14T00:15:13;11.40;99.90
16970;DHT22;8601;48.718;8.992;2023-05-14T00:17:40;11.40;99.90
16970;DHT22;8601;48.718;8.992;2023-05-14T00:20:10;11.40;99.90
16970;DHT22;8601;48.718;8.992;2023-05-14T00:22:37;11.40;99.90
16970;DHT22;8601;48.718;8.992;2023-05-14T00:25:05;11.30;99.90
16970;DHT22;8601;48.718;8.992;2023-05-14T00:27:32;11.40;99.90
16970;DHT22;8601;48.718;8.992;2023-05-14T00:29:59;11.40;99.90
16970;DHT22;8601;48.718;8.992;2023-05-14T00:32:26;11.40;99.90
16970;DHT22;8601;48.718;8.992;2023-05-14T00:34:53;11.40;99.90
16970;DHT22;8601;48.718;8.992;2023-05-14T00:37:21;11.40;99.90
16970;DHT22;8601;48.718;8.992;2023-05-14T00:39:48;11.40;99.90
16970;DHT22;8601;48.718;8.992;2023-05-14T00:42:15;11.40;99.90
16970;DHT22;8601;48.718;8.992;2023-05-14T00:44:42;11.30;99.90
16970;DHT22;8601;48.718;8.992;2023-05-14T00:47:09;11.30;99.90
16970;DHT22;8601;48.718;8.992;2023-05-14T00:49:38;11.30;99.90
16970;DHT22;8601;48.718;8.992;2023-05-14T00:52:06;11.30;99.90
16970;DHT22;8601;48.718;8.992;2023-05-14T00:54:35;11.30;99.90
16970;DHT22;8601;48.718;8.992;2023-05-14T00:57:03;11.20;99.90
16970;DHT22;8601;48.718;8.992;2023-05-14T00:59:30;11.30;99.90
16970;DHT22;8601;48.718;8.992;2023-05-14T01:01:58;11.30;99.90
16970;DHT22;8601;48.718;8.992;2023-05-14T01:04:25;11.30;99.90
16970;DHT22;8601;48.718;8.992;2023-05-14T01:07:01;11.20;99.90
16970;DHT22;8601;48.718;8.992;2023-05-14T01:09:42;11.20;99.90
16970;DHT22;8601;48.718;8.992;2023-05-14T01:12:16;11.20;99.90
16970;DHT22;8601;48.718;8.992;2023-05-14T01:14:53;11.20;99.90
16970;DHT22;8601;48.718;8.992;2023-05-14T01:17:25;11.20;99.90
16970;DHT22;8601;48.718;8.992;2023-05-14T01:19:54;11.20;99.90
16970;DHT22;8601;48.718;8.992;2023-05-14T01:22:23;11.20;99.90
16970;DHT22;8601;48.718;8.992;2023-05-14T01:24:50;11.10;99.90
16970;DHT22;8601;48.718;8.992;2023-05-14T01:27:23;11.10;99.90
16970;DHT22;8601;48.718;8.992;2023-05-14T01:29:59;11.10;99.90
16970;DHT22;8601;48.718;8.992;2023-05-14T01:32:30;11.20;99.90
16970;DHT22;8601;48.718;8.992;2023-05-14T01:34:59;11.10;99.90
16970;DHT22;8601;48.718;8.992;2023-05-14T01:37:29;11.10;99.90
16970;DHT22;8601;48.718;8.992;2023-05-14T01:39:57;11.10;99.90
16970;DHT22;8601;48.718;8.992;2023-05-14T01:42:24;11.10;99.90
16970;DHT22;8601;48.718;8.992;2023-05-14T01:44:51;11.10;99.90
16970;DHT22;8601;48.718;8.992;2023-05-14T01:47:18;11.10;99.90
16970;DHT22;8601;48.718;8.992;2023-05-14T01:49:46;11.10;99.90
16970;DHT22;8601;48.718;8.992;2023-05-14T01:52:15;11.10;99.90
16970;DHT22;8601;48.718;8.992;2023-05-14T01:54:46;11.10;99.90
16970;DHT22;8601;48.718;8.992;2023-05-14T01:57:13;11.20;99.90
16970;DHT22;8601;48.718;8.992;2023-05-14T01:59:40;11.10;99.90
16970;DHT22;8601;48.718;8.992;2023-05-14T02:02:07;11.10;99.90
16970;DHT22;8601;48.718;8.992;2023-05-14T02:04:34;11.00;99.90
16970;DHT22;8601;48.718;8.992;2023-05-14T02:07:02;11.00;99.90
16970;DHT22;8601;48.718;8.992;2023-05-14T02:09:29;11.00;99.90
16970;DHT22;8601;48.718;8.992;2023-05-14T02:11:58;10.90;99.90
16970;DHT22;8601;48.718;8.992;2023-05-14T02:14:25;10.90;99.90
16970;DHT22;8601;48.718;8.992;2023-05-14T02:16:52;10.90;99.90
16970;DHT22;8601;48.718;8.992;2023-05-14T02:19:19;10.90;99.90
16970;DHT22;8601;48.718;8.992;2023-05-14T02:21:46;10.80;99.90
16970;DHT22;8601;48.718;8.992;2023-05-14T02:24:13;10.80;99.90
16970;DHT22;8601;48.718;8.992;2023-05-14T02:26:40;10.70;99.90
16970;DHT22;8601;48.718;8.992;2023-05-14T02:29:10;10.70;99.90
16970;DHT22;8601;48.718;8.992;2023-05-14T02:31:37;10.70;99.90
16970;DHT22;8601;48.718;8.992;2023-05-14T02:34:04;10.60;99.90
16970;DHT22;8601;48.718;8.992;2023-05-14T02:36:32;10.60;99.90
16970;DHT22;8601;48.718;8.992;2023-05-14T02:39:00;10.50;99.90
16970;DHT22;8601;48.718;8.992;2023-05-14T02:41:27;10.50;99.90
16970;DHT22;8601;48.718;8.992;2023-05-14T02:43:55;10.50;99.90
16970;DHT22;8601;48.718;8.992;2023-05-14T02:46:23;10.40;99.90
16970;DHT22;8601;48.718;8.992;2023-05-14T02:48:50;10.50;99.90
16970;DHT22;8601;48.718;8.992;2023-05-14T02:51:18;10.50;99.90
16970;DHT22;8601;48.718;8.992;2023-05-14T02:53:45;10.50;99.90
16970;DHT22;8601;48.718;8.992;2023-05-14T02:56:12;10.50;99.90
16970;DHT22;8601;48.718;8.992;2023-05-14T02:58:39;10.50;99.90
16970;DHT22;8601;48.718;8.992;2023-05-14T03:01:06;10.50;99.90
16970;DHT22;8601;48.718;8.992;2023-05-14T03:03:34;10.40;99.90
16970;DHT22;8601;48.718;8.992;2023-05-14T03:06:02;10.40;99.90
16970;DHT22;8601;48.718;8.992;2023-05-14T03:08:31;10.40;99.90
16970;DHT22;8601;48.718;8.992;2023-05-14T03:10:58;10.40;99.90
16970;DHT22;8601;48.718;8.992;2023-05-14T03:13:25;10.40;99.90
16970;DHT22;8601;48.718;8.992;2023-05-14T03:15:52;10.40;99.90
16970;DHT22;8601;48.718;8.992;2023-05-14T03:18:20;10.40;99.90
16970;DHT22;8601;48.718;8.992;2023-05-14T03:20:48;10.40;99.90
16970;DHT22;8601;48.718;8.992;2023-05-14T03:23:15;10.40;99.90
16970;DHT22;8601;48.718;8.992;2023-05-14T03:25:42;10.30;99.90
16970;DHT22;8601;48.718;8.992;2023-05-14T03:28:09;10.30;99.90
16970;DHT22;8601;48.718;8.992;2023-05-14T03:30:36;10.40;99.90
16970;DHT22;8601;48.718;8.992;2023-05-14T03:33:03;10.30;99.90
16970;DHT22;8601;48.718;8.992;2023-05-14T03:35:30;10.40;99.90
16970;DHT22;8601;48.718;8.992;2023-05-14T03:37:58;10.40;99.90
16970;DHT22;8601;48.718;8.992;2023-05-14T03:40:25;10.40;99.90
16970;DHT22;8601;48.718;8.992;2023-05-14T03:42:52;10.40;99.90
16970;DHT22;8601;48.718;8.992;2023-05-14T03:45:19;10.40;99.90
16970;DHT22;8601;48.718;8.992;2023-05-14T03:47:46;10.40;99.90
16970;DHT22;8601;48.718;8.992;2023-05-14T03:50:12;10.40;99.90
16970;DHT22;8601;48.718;8.992;2023-05-14T03:52:39;10.40;99.90
16970;DHT22;8601;48.718;8.992;2023-05-14T03:55:10;10.50;99.90
16970;DHT22;8601;48.718;8.992;2023-05-14T03:57:37;10.50;99.90
16970;DHT22;8601;48.718;8.992;2023-05-14T04:00:07;10.50;99.90
16970;DHT22;8601;48.718;8.992;2023-05-14T04:02:35;10.40;99.90
16970;DHT22;8601;48.718;8.992;2023-05-14T04:05:02;10.50;99.90
16970;DHT22;8601;48.718;8.992;2023-05-14T04:07:29;10.50;99.90
16970;DHT22;8601;48.718;8.992;2023-05-14T04:09:56;10.50;99.90
16970;DHT22;8601;48.718;8.992;2023-05-14T04:12:25;10.50;99.90
16970;DHT22;8601;48.718;8.992;2023-05-14T04:14:52;10.50;99.90
16970;DHT22;8601;48.718;8.992;2023-05-14T04:17:19;10.50;99.90
16970;DHT22;8601;48.718;8.992;2023-05-14T04:19:47;10.50;99.90
16970;DHT22;8601;48.718;8.992;2023-05-14T04:22:14;10.60;99.90
16970;DHT22;8601;48.718;8.992;2023-05-14T04:24:41;10.60;99.90
16970;DHT22;8601;48.718;8.992;2023-05-14T04:27:07;10.60;99.90
16970;DHT22;8601;48.718;8.992;2023-05-14T04:29:36;10.60;99.90
16970;DHT22;8601;48.718;8.992;2023-05-14T04:32:03;10.60;99.90
16970;DHT22;8601;48.718;8.992;2023-05-14T04:34:31;10.60;99.90
16970;DHT22;8601;48.718;8.992;2023-05-14T04:36:58;10.60;99.90
16970;DHT22;8601;48.718;8.992;2023-05-14T04:39:25;10.60;99.90
16970;DHT22;8601;48.718;8.992;2023-05-14T04:41:52;10.50;99.90
16970;DHT22;8601;48.718;8.992;2023-05-14T04:44:18;10.50;99.90
16970;DHT22;8601;48.718;8.992;2023-05-14T04:46:47;10.50;99.90
16970;DHT22;8601;48.718;8.992;2023-05-14T04:49:13;10.50;99.90
16970;DHT22;8601;48.718;8.992;2023-05-14T04:51:40;10.60;99.90
16970;DHT22;8601;48.718;8.992;2023-05-14T04:54:07;10.60;99.90
16970;DHT22;8601;48.718;8.992;2023-05-14T04:56:34;10.60;99.90
16970;DHT22;8601;48.718;8.992;2023-05-14T04:59:01;10.50;99.90
16970;DHT22;8601;48.718;8.992;2023-05-14T05:01:29;10.60;99.90
16970;DHT22;8601;48.718;8.992;2023-05-14T05:03:58;10.60;99.90
16970;DHT22;8601;48.718;8.992;2023-05-14T05:06:25;10.60;99.90
16970;DHT22;8601;48.718;8.992;2023-05-14T05:08:51;10.60;99.90
16970;DHT22;8601;48.718;8.992;2023-05-14T05:11:18;10.60;99.90
16970;DHT22;8601;48.718;8.992;2023-05-14T05:13:52;10.50;99.90
16970;DHT22;8601;48.718;8.992;2023-05-14T05:16:19;10.50;99.90
16970;DHT22;8601;48.718;8.992;2023-05-14T05:18:46;10.50;99.90
16970;DHT22;8601;48.718;8.992;2023-05-14T05:21:14;10.50;99.90
16970;DHT22;8601;48.718;8.992;2023-05-14T05:23:42;10.60;99.90
16970;DHT22;8601;48.718;8.992;2023-05-14T05:26:09;10.60;99.90
16970;DHT22;8601;48.718;8.992;2023-05-14T05:28:35;10.50;99.90
16970;DHT22;8601;48.718;8.992;2023-05-14T05:31:04;10.50;99.90
16970;DHT22;8601;48.718;8.992;2023-05-14T05:33:31;10.60;99.90
16970;DHT22;8601;48.718;8.992;2023-05-14T05:35:58;10.50;99.90
16970;DHT22;8601;48.718;8.992;2023-05-14T05:38:28;10.50;99.90
16970;DHT22;8601;48.718;8.992;2023-05-14T05:40:55;10.40;99.90
16970;DHT22;8601;48.718;8.992;2023-05-14T05:43:23;10.50;99.90
16970;DHT22;8601;48.718;8.992;2023-05-14T05:45:50;10.50;99.90
16970;DHT22;8601;48.718;8.992;2023-05-14T05:48:16;10.60;99.90
16970;DHT22;8601;48.718;8.992;2023-05-14T05:50:45;10.60;99.90
16970;DHT22;8601;48.718;8.992;2023-05-14T05:53:13;10.50;99.90
16970;DHT22;8601;48.718;8.992;2023-05-14T05:55:42;10.40;99.90
16970;DHT22;8601;48.718;8.992;2023-05-14T05:58:09;10.50;99.90
16970;DHT22;8601;48.718;8.992;2023-05-14T06:00:40;10.50;99.90
16970;DHT22;8601;48.718;8.992;2023-05-14T06:03:06;10.50;99.90
16970;DHT22;8601;48.718;8.992;2023-05-14T06:05:33;10.50;99.90
16970;DHT22;8601;48.718;8.992;2023-05-14T06:08:00;10.40;99.90
16970;DHT22;8601;48.718;8.992;2023-05-14T06:10:27;10.40;99.90
16970;DHT22;8601;48.718;8.992;2023-05-14T06:12:56;10.40;99.90
16970;DHT22;8601;48.718;8.992;2023-05-14T06:15:26;10.50;99.90
16970;DHT22;8601;48.718;8.992;2023-05-14T06:17:53;10.50;99.90
16970;DHT22;8601;48.718;8.992;2023-05-14T06:20:20;10.50;99.90
16970;DHT22;8601;48.718;8.992;2023-05-14T06:22:53;10.60;99.90
16970;DHT22;8601;48.718;8.992;2023-05-14T06:25:19;10.70;99.90
16970;DHT22;8601;48.718;8.992;2023-05-14T06:27:46;10.70;99.90
16970;DHT22;8601;48.718;8.992;2023-05-14T06:30:15;10.80;99.90
16970;DHT22;8601;48.718;8.992;2023-05-14T06:32:42;10.80;99.90
16970;DHT22;8601;48.718;8.992;2023-05-14T06:35:09;10.80;99.90
16970;DHT22;8601;48.718;8.992;2023-05-14T06:37:36;10.80;99.90
16970;DHT22;8601;48.718;8.992;2023-05-14T06:40:06;10.80;99.90
16970;DHT22;8601;48.718;8.992;2023-05-14T06:42:33;10.80;99.90
16970;DHT22;8601;48.718;8.992;2023-05-14T06:45:00;10.90;99.90
16970;DHT22;8601;48.718;8.992;2023-05-14T06:47:36;10.90;99.90
16970;DHT22;8601;48.718;8.992;2023-05-14T06:50:04;11.10;99.90
16970;DHT22;8601;48.718;8.992;2023-05-14T06:52:31;11.20;99.90
16970;DHT22;8601;48.718;8.992;2023-05-14T06:54:58;11.10;99.90
16970;DHT22;8601;48.718;8.992;2023-05-14T06:57:25;11.00;99.90
16970;DHT22;8601;48.718;8.992;2023-05-14T06:59:51;11.00;99.90
16970;DHT22;8601;48.718;8.992;2023-05-14T07:02:23;11.10;99.90
16970;DHT22;8601;48.718;8.992;2023-05-14T07:04:52;11.20;99.90
16970;DHT22;8601;48.718;8.992;2023-05-14T07:07:19;11.30;99.90
16970;DHT22;8601;48.718;8.992;2023-05-14T07:09:46;11.20;99.90
16970;DHT22;8601;48.718;8.992;2023-05-14T07:12:23;11.20;99.90
16970;DHT22;8601;48.718;8.992;2023-05-14T07:14:51;11.30;99.90
16970;DHT22;8601;48.718;8.992;2023-05-14T07:17:19;11.40;99.90
16970;DHT22;8601;48.718;8.992;2023-05-14T07:19:47;11.30;99.90
16970;DHT22;8601;48.718;8.992;2023-05-14T07:22:15;11.30;99.90
16970;DHT22;8601;48.718;8.992;2023-05-14T07:24:42;11.30;99.90
16970;DHT22;8601;48.718;8.992;2023-05-14T07:27:08;11.40;99.90
16970;DHT22;8601;48.718;8.992;2023-05-14T07:29:37;11.40;99.90
16970;DHT22;8601;48.718;8.992;2023-05-14T07:32:04;11.40;99.90
16970;DHT22;8601;48.718;8.992;2023-05-14T07:34:31;11.40;99.90
16970;DHT22;8601;48.718;8.992;2023-05-14T07:36:58;11.50;99.90
16970;DHT22;8601;48.718;8.992;2023-05-14T07:39:32;11.60;99.90
16970;DHT22;8601;48.718;8.992;2023-05-14T07:41:59;11.70;99.90
16970;DHT22;8601;48.718;8.992;2023-05-14T07:44:27;11.80;99.90
16970;DHT22;8601;48.718;8.992;2023-05-14T07:46:54;11.90;99.90
16970;DHT22;8601;48.718;8.992;2023-05-14T07:49:21;11.90;99.90
16970;DHT22;8601;48.718;8.992;2023-05-14T07:51:48;12.10;99.90
16970;DHT22;8601;48.718;8.992;2023-05-14T07:54:15;12.10;99.90
16970;DHT22;8601;48.718;8.992;2023-05-14T07:56:44;12.00;99.90
16970;DHT22;8601;48.718;8.992;2023-05-14T07:59:10;12.10;99.90
16970;DHT22;8601;48.718;8.992;2023-05-14T08:01:37;12.10;99.90
16970;DHT22;8601;48.718;8.992;2023-05-14T08:04:05;12.30;99.90
16970;DHT22;8601;48.718;8.992;2023-05-14T08:06:32;12.30;99.90
16970;DHT22;8601;48.718;8.992;2023-05-14T08:08:58;12.30;99.90
16970;DHT22;8601;48.718;8.992;2023-05-14T08:11:25;12.40;99.90
16970;DHT22;8601;48.718;8.992;2023-05-14T08:13:54;12.40;99.90
16970;DHT22;8601;48.718;8.992;2023-05-14T08:16:21;12.40;99.90
16970;DHT22;8601;48.718;8.992;2023-05-14T08:18:50;12.50;99.90
16970;DHT22;8601;48.718;8.992;2023-05-14T08:21:17;12.50;99.90
16970;DHT22;8601;48.718;8.992;2023-05-14T08:23:45;12.70;99.90
16970;DHT22;8601;48.718;8.992;2023-05-14T08:26:12;12.70;99.90
16970;DHT22;8601;48.718;8.992;2023-05-14T08:28:38;12.90;99.90
16970;DHT22;8601;48.718;8.992;2023-05-14T08:31:07;12.90;99.90
16970;DHT22;8601;48.718;8.992;2023-05-14T08:33:34;13.10;99.90
16970;DHT22;8601;48.718;8.992;2023-05-14T08:36:01;13.20;99.90
16970;DHT22;8601;48.718;8.992;2023-05-14T08:38:28;13.40;99.90
16970;DHT22;8601;48.718;8.992;2023-05-14T08:40:56;13.60;99.90
16970;DHT22;8601;48.718;8.992;2023-05-14T08:43:25;13.60;99.90
16970;DHT22;8601;48.718;8.992;2023-05-14T08:45:56;13.70;99.90
16970;DHT22;8601;48.718;8.992;2023-05-14T08:48:26;13.90;99.90
16970;DHT22;8601;48.718;8.992;2023-05-14T08:50:54;13.90;99.90
16970;DHT22;8601;48.718;8.992;2023-05-14T08:53:21;14.00;99.90
16970;DHT22;8601;48.718;8.992;2023-05-14T08:55:50;13.80;99.90
16970;DHT22;8601;48.718;8.992;2023-05-14T08:58:17;13.70;99.90
16970;DHT22;8601;48.718;8.992;2023-05-14T09:00:44;13.80;99.90
16970;DHT22;8601;48.718;8.992;2023-05-14T09:03:11;13.90;99.90
16970;DHT22;8601;48.718;8.992;2023-05-14T09:05:40;14.00;99.90
16970;DHT22;8601;48.718;8.992;2023-05-14T09:08:07;14.10;99.90
16970;DHT22;8601;48.718;8.992;2023-05-14T09:10:34;14.20;99.90
16970;DHT22;8601;48.718;8.992;2023-05-14T09:13:01;14.30;99.90
16970;DHT22;8601;48.718;8.992;2023-05-14T09:15:28;14.50;99.90
16970;DHT22;8601;48.718;8.992;2023-05-14T09:17:55;14.60;99.90
16970;DHT22;8601;48.718;8.992;2023-05-14T09:20:23;14.90;99.90
16970;DHT22;8601;48.718;8.992;2023-05-14T09:22:53;15.40;99.90
16970;DHT22;8601;48.718;8.992;2023-05-14T09:25:25;15.50;99.90
16970;DHT22;8601;48.718;8.992;2023-05-14T09:27:53;15.50;99.90
16970;DHT22;8601;48.718;8.992;2023-05-14T09:30:20;15.30;99.90
16970;DHT22;8601;48.718;8.992;2023-05-14T09:32:47;15.10;99.90
16970;DHT22;8601;48.718;8.992;2023-05-14T09:35:16;15.20;99.90
16970;DHT22;8601;48.718;8.992;2023-05-14T09:37:45;15.30;99.90
16970;DHT22;8601;48.718;8.992;2023-05-14T09:40:17;15.30;99.90
16970;DHT22;8601;48.718;8.992;2023-05-14T09:42:44;15.20;99.90
16970;DHT22;8601;48.718;8.992;2023-05-14T09:45:14;15.20;99.90
16970;DHT22;8601;48.718;8.992;2023-05-14T09:47:41;15.10;99.90
16970;DHT22;8601;48.718;8.992;2023-05-14T09:50:09;15.00;99.90
16970;DHT22;8601;48.718;8.992;2023-05-14T09:52:37;15.00;99.90
16970;DHT22;8601;48.718;8.992;2023-05-14T09:55:05;14.90;99.90
16970;DHT22;8601;48.718;8.992;2023-05-14T09:57:34;14.90;99.90
16970;DHT22;8601;48.718;8.992;2023-05-14T10:00:03;15.20;99.90
16970;DHT22;8601;48.718;8.992;2023-05-14T10:02:34;15.70;99.90
16970;DHT22;8601;48.718;8.992;2023-05-14T10:05:04;15.40;99.90
16970;DHT22;8601;48.718;8.992;2023-05-14T10:07:38;15.40;99.90
16970;DHT22;8601;48.718;8.992;2023-05-14T10:10:09;15.30;99.90
16970;DHT22;8601;48.718;8.992;2023-05-14T10:12:39;15.20;99.90
16970;DHT22;8601;48.718;8.992;2023-05-14T10:15:14;15.00;99.90
16970;DHT22;8601;48.718;8.992;2023-05-14T10:17:48;15.30;99.90
16970;DHT22;8601;48.718;8.992;2023-05-14T10:20:30;15.30;99.90
16970;DHT22;8601;48.718;8.992;2023-05-14T10:22:57;15.50;99.90
16970;DHT22;8601;48.718;8.992;2023-05-14T10:25:27;15.40;99.90
16970;DHT22;8601;48.718;8.992;2023-05-14T10:27:57;15.50;99.90
16970;DHT22;8601;48.718;8.992;2023-05-14T10:30:24;15.50;99.90
16970;DHT22;8601;48.718;8.992;2023-05-14T10:33:05;15.40;99.90
16970;DHT22;8601;48.718;8.992;2023-05-14T10:35:50;15.40;99.90
16970;DHT22;8601;48.718;8.992;2023-05-14T10:38:21;15.40;99.90
16970;DHT22;8601;48.718;8.992;2023-05-14T10:41:00;15.40;99.90
16970;DHT22;8601;48.718;8.992;2023-05-14T10:43:29;15.50;99.90
16970;DHT22;8601;48.718;8.992;2023-05-14T10:45:57;15.50;99.90
16970;DHT22;8601;48.718;8.992;2023-05-14T10:48:25;15.50;99.90
16970;DHT22;8601;48.718;8.992;2023-05-14T10:50:52;15.90;99.90
16970;DHT22;8601;48.718;8.992;2023-05-14T10:53:30;16.00;99.90
16970;DHT22;8601;48.718;8.992;2023-05-14T10:56:02;16.00;99.90
16970;DHT22;8601;48.718;8.992;2023-05-14T10:58:31;16.10;99.90
16970;DHT22;8601;48.718;8.992;2023-05-14T11:01:00;16.00;99.90
16970;DHT22;8601;48.718;8.992;2023-05-14T11:03:30;15.70;99.90
16970;DHT22;8601;48.718;8.992;2023-05-14T11:06:02;15.70;99.90
16970;DHT22;8601;48.718;8.992;2023-05-14T11:08:30;15.60;99.90
16970;DHT22;8601;48.718;8.992;2023-05-14T11:10:58;15.60;99.90
16970;DHT22;8601;48.718;8.992;2023-05-14T11:13:26;16.10;99.90
16970;DHT22;8601;48.718;8.992;2023-05-14T11:15:55;16.40;99.90
16970;DHT22;8601;48.718;8.992;2023-05-14T11:18:29;17.00;99.90
16970;DHT22;8601;48.718;8.992;2023-05-14T11:21:01;17.10;98.60
16970;DHT22;8601;48.718;8.992;2023-05-14T11:23:29;16.90;99.50
16970;DHT22;8601;48.718;8.992;2023-05-14T11:25:56;16.70;99.20
16970;DHT22;8601;48.718;8.992;2023-05-14T11:28:24;16.50;99.90
16970;DHT22;8601;48.718;8.992;2023-05-14T11:30:52;16.30;99.90
16970;DHT22;8601;48.718;8.992;2023-05-14T11:33:21;16.20;99.90
16970;DHT22;8601;48.718;8.992;2023-05-14T11:35:47;16.20;99.90
16970;DHT22;8601;48.718;8.992;2023-05-14T11:38:17;16.70;99.90
16970;DHT22;8601;48.718;8.992;2023-05-14T11:40:50;16.80;99.50
16970;DHT22;8601;48.718;8.992;2023-05-14T11:43:18;16.80;99.90
16970;DHT22;8601;48.718;8.992;2023-05-14T11:45:48;16.80;99.90
16970;DHT22;8601;48.718;8.992;2023-05-14T11:48:16;16.60;99.90
16970;DHT22;8601;48.718;8.992;2023-05-14T11:50:46;16.50;99.90
16970;DHT22;8601;48.718;8.992;2023-05-14T11:53:17;16.40;99.90
16970;DHT22;8601;48.718;8.992;2023-05-14T11:55:46;16.40;99.90
16970;DHT22;8601;48.718;8.992;2023-05-14T11:58:13;16.80;98.50
16970;DHT22;8601;48.718;8.992;2023-05-14T12:00:43;17.00;99.90
16970;DHT22;8601;48.718;8.992;2023-05-14T12:03:10;17.00;97.50
16970;DHT22;8601;48.718;8.992;2023-05-14T12:05:37;16.90;99.40
16970;DHT22;8601;48.718;8.992;2023-05-14T12:08:20;16.80;99.90
16970;DHT22;8601;48.718;8.992;2023-05-14T12:10:47;16.50;98.10
16970;DHT22;8601;48.718;8.992;2023-05-14T12:13:16;16.40;99.70
16970;DHT22;8601;48.718;8.992;2023-05-14T12:15:44;16.30;99.80
16970;DHT22;8601;48.718;8.992;2023-05-14T12:18:13;16.30;99.70
16970;DHT22;8601;48.718;8.992;2023-05-14T12:20:46;16.30;99.00
16970;DHT22;8601;48.718;8.992;2023-05-14T12:23:13;16.30;98.30
16970;DHT22;8601;48.718;8.992;2023-05-14T12:25:50;16.40;98.60
16970;DHT22;8601;48.718;8.992;2023-05-14T12:28:18;16.60;99.40
16970;DHT22;8601;48.718;8.992;2023-05-14T12:30:45;16.70;98.50
16970;DHT22;8601;48.718;8.992;2023-05-14T12:33:12;16.50;97.70
16970;DHT22;8601;48.718;8.992;2023-05-14T12:35:39;16.70;97.10
16970;DHT22;8601;48.718;8.992;2023-05-14T12:38:07;17.10;96.00
16970;DHT22;8601;48.718;8.992;2023-05-14T12:40:34;17.40;94.50
16970;DHT22;8601;48.718;8.992;2023-05-14T12:43:02;17.90;93.70
16970;DHT22;8601;48.718;8.992;2023-05-14T12:45:31;18.00;91.70
16970;DHT22;8601;48.718;8.992;2023-05-14T12:47:58;18.00;92.20
16970;DHT22;8601;48.718;8.992;2023-05-14T12:50:25;17.80;94.50
16970;DHT22;8601;48.718;8.992;2023-05-14T12:52:52;17.70;94.90
16970;DHT22;8601;48.718;8.992;2023-05-14T12:55:19;17.50;93.60
16970;DHT22;8601;48.718;8.992;2023-05-14T12:57:46;17.20;93.40
16970;DHT22;8601;48.718;8.992;2023-05-14T13:00:23;17.10;95.60
16970;DHT22;8601;48.718;8.992;2023-05-14T13:02:51;17.10;95.20
16970;DHT22;8601;48.718;8.992;2023-05-14T13:05:19;17.20;94.50
16970;DHT22;8601;48.718;8.992;2023-05-14T13:08:03;17.20;95.20
16970;DHT22;8601;48.718;8.992;2023-05-14T13:10:44;17.50;95.40
16970;DHT22;8601;48.718;8.992;2023-05-14T13:13:11;18.00;94.30
16970;DHT22;8601;48.718;8.992;2023-05-14T13:15:45;18.10;95.00
16970;DHT22;8601;48.718;8.992;2023-05-14T13:18:14;17.80;93.40
16970;DHT22;8601;48.718;8.992;2023-05-14T13:20:47;17.40;94.90
16970;DHT22;8601;48.718;8.992;2023-05-14T13:23:18;17.20;97.80
16970;DHT22;8601;48.718;8.992;2023-05-14T13:25:56;16.90;99.90
16970;DHT22;8601;48.718;8.992;2023-05-14T13:28:26;16.60;99.90
16970;DHT22;8601;48.718;8.992;2023-05-14T13:31:11;16.50;99.90
16970;DHT22;8601;48.718;8.992;2023-05-14T13:33:49;16.40;99.90
16970;DHT22;8601;48.718;8.992;2023-05-14T13:36:17;16.30;99.90
16970;DHT22;8601;48.718;8.992;2023-05-14T13:38:44;16.30;99.90
16970;DHT22;8601;48.718;8.992;2023-05-14T13:41:11;16.30;99.90
16970;DHT22;8601;48.718;8.992;2023-05-14T13:43:39;16.30;99.90
16970;DHT22;8601;48.718;8.992;2023-05-14T13:46:16;16.20;99.90
16970;DHT22;8601;48.718;8.992;2023-05-14T13:48:43;16.10;99.90
16970;DHT22;8601;48.718;8.992;2023-05-14T13:51:10;16.10;99.90
16970;DHT22;8601;48.718;8.992;2023-05-14T13:53:36;16.10;99.90
16970;DHT22;8601;48.718;8.992;2023-05-14T13:56:04;16.10;99.90
16970;DHT22;8601;48.718;8.992;2023-05-14T13:58:34;16.10;99.90
16970;DHT22;8601;48.718;8.992;2023-05-14T14:01:00;16.10;98.70
16970;DHT22;8601;48.718;8.992;2023-05-14T14:03:29;16.10;99.90
16970;DHT22;8601;48.718;8.992;2023-05-14T14:06:04;16.10;97.30
16970;DHT22;8601;48.718;8.992;2023-05-14T14:08:31;16.10;97.90
16970;DHT22;8601;48.718;8.992;2023-05-14T14:10:57;16.00;97.60
16970;DHT22;8601;48.718;8.992;2023-05-14T14:13:24;16.00;97.60
16970;DHT22;8601;48.718;8.992;2023-05-14T14:15:52;16.00;96.80
16970;DHT22;8601;48.718;8.992;2023-05-14T14:18:19;16.00;97.50
16970;DHT22;8601;48.718;8.992;2023-05-14T14:20:47;16.10;97.00
16970;DHT22;8601;48.718;8.992;2023-05-14T14:23:14;16.10;98.20
16970;DHT22;8601;48.718;8.992;2023-05-14T14:25:41;16.10;97.20
16970;DHT22;8601;48.718;8.992;2023-05-14T14:28:08;16.30;95.60
16970;DHT22;8601;48.718;8.992;2023-05-14T14:30:35;16.50;95.70
16970;DHT22;8601;48.718;8.992;2023-05-14T14:33:02;17.00;99.00
16970;DHT22;8601;48.718;8.992;2023-05-14T14:35:29;17.10;95.20
16970;DHT22;8601;48.718;8.992;2023-05-14T14:38:03;17.20;94.60
16970;DHT22;8601;48.718;8.992;2023-05-14T14:40:31;17.30;93.50
16970;DHT22;8601;48.718;8.992;2023-05-14T14:42:58;17.40;92.70
16970;DHT22;8601;48.718;8.992;2023-05-14T14:45:26;17.90;93.20
16970;DHT22;8601;48.718;8.992;2023-05-14T14:48:25;18.20;92.50
16970;DHT22;8601;48.718;8.992;2023-05-14T14:50:53;18.40;90.70
16970;DHT22;8601;48.718;8.992;2023-05-14T14:53:22;18.10;91.60
16970;DHT22;8601;48.718;8.992;2023-05-14T14:55:49;17.80;92.30
16970;DHT22;8601;48.718;8.992;2023-05-14T14:58:17;17.50;91.10
16970;DHT22;8601;48.718;8.992;2023-05-14T15:00:44;17.50;91.50
16970;DHT22;8601;48.718;8.992;2023-05-14T15:03:11;17.30;91.50
16970;DHT22;8601;48.718;8.992;2023-05-14T15:05:39;17.30;91.40
16970;DHT22;8601;48.718;8.992;2023-05-14T15:08:06;17.10;91.70
16970;DHT22;8601;48.718;8.992;2023-05-14T15:10:36;17.00;92.30
16970;DHT22;8601;48.718;8.992;2023-05-14T15:13:04;17.00;92.10
16970;DHT22;8601;48.718;8.992;2023-05-14T15:15:32;17.20;92.90
16970;DHT22;8601;48.718;8.992;2023-05-14T15:17:59;17.60;92.40
16970;DHT22;8601;48.718;8.992;2023-05-14T15:20:26;17.80;91.50
16970;DHT22;8601;48.718;8.992;2023-05-14T15:22:53;18.10;90.30
16970;DHT22;8601;48.718;8.992;2023-05-14T15:25:22;18.40;90.70
16970;DHT22;8601;48.718;8.992;2023-05-14T15:27:50;18.50;88.10
16970;DHT22;8601;48.718;8.992;2023-05-14T15:30:17;18.50;88.30
16970;DHT22;8601;48.718;8.992;2023-05-14T15:32:45;18.60;90.00
16970;DHT22;8601;48.718;8.992;2023-05-14T15:35:12;18.30;87.00
16970;DHT22;8601;48.718;8.992;2023-05-14T15:37:40;18.50;86.90
16970;DHT22;8601;48.718;8.992;2023-05-14T15:40:08;18.50;84.40
16970;DHT22;8601;48.718;8.992;2023-05-14T15:42:35;18.60;86.20
16970;DHT22;8601;48.718;8.992;2023-05-14T15:45:05;18.60;86.00
16970;DHT22;8601;48.718;8.992;2023-05-14T15:47:32;18.60;86.60
16970;DHT22;8601;48.718;8.992;2023-05-14T15:49:59;18.60;86.00
16970;DHT22;8601;48.718;8.992;2023-05-14T15:52:26;18.40;80.80